Time;durP1;ratioP1;P1;durP2;ratioP2;P2;SDS_P1;SDS_P2;PMS_P1;PMS_P2;Temp;Humidity;BMP_temperature;BMP_pressure;BME280_temperature;BME280_humidity;BME280_pressure;Samples;Min_cycle;Max_cycle;Signal;HPM_P1;HPM_P2
2021/12/17 00:01:06;;;;;;;23.60;18.25;;;154.50;2252.80;;;;;;5011589;28;20034;-59
2021/12/17 00:03:43;;;;;;;37.13;22.35;;;179.20;2252.80;;;;;;5011543;28;20037;-59
2021/12/17 00:06:29;;;;;;;26.33;18.90;;;179.20;2252.80;;;;;;5011724;28;20062;-59
2021/12/17 00:08:56;;;;;;;29.27;18.42;;;179.20;2252.80;;;;;;5011908;28;20066;-58
2021/12/17 00:11:23;;;;;;;32.25;16.88;;;179.50;2252.80;;;;;;5011715;28;20085;-58
2021/12/17 00:13:50;;;;;;;38.50;25.55;;;154.50;2252.80;;;;;;5011391;28;20423;-59
2021/12/17 00:16:23;;;;;;;28.70;18.20;;;179.20;2252.80;;;;;;5011586;28;20546;-58
2021/12/17 00:48:36;;;;;;;26.63;17.80;;;154.50;2252.80;;;;;;5011543;28;20555;-58
2021/12/17 00:53:47;;;;;;;28.02;18.65;;;179.20;2252.80;;;;;;5011021;28;20026;-58
2021/12/17 00:56:13;;;;;;;25.55;19.15;;;179.20;2252.80;;;;;;5010710;28;20396;-58
2021/12/17 00:58:38;;;;;;;27.58;19.65;;;179.40;2252.80;;;;;;5010567;28;20036;-59
2021/12/17 01:01:04;;;;;;;28.98;18.55;;;179.40;2252.80;;;;;;5010975;28;20037;-58
2021/12/17 01:03:30;;;;;;;26.20;18.13;;;179.30;2252.80;;;;;;5010563;28;20030;-59
2021/12/17 01:05:56;;;;;;;28.10;19.38;;;179.30;2252.80;;;;;;5010788;28;20025;-58
2021/12/17 01:08:22;;;;;;;31.05;21.27;;;179.40;2252.80;;;;;;5010658;28;20026;-58
2021/12/17 01:10:52;;;;;;;26.42;19.55;;;179.30;2252.80;;;;;;5010502;28;20093;-59
2021/12/17 01:13:18;;;;;;;28.30;19.77;;;179.20;2252.80;;;;;;5010286;28;20037;-60
2021/12/17 01:15:44;;;;;;;26.65;19.48;;;154.40;2252.80;;;;;;5010510;28;20030;-58
2021/12/17 01:18:15;;;;;;;27.13;18.00;;;154.40;2252.80;;;;;;5010698;28;20022;-58
2021/12/17 01:36:39;;;;;;;31.08;20.05;;;154.50;2252.80;;;;;;5010374;28;20076;-58
2021/12/17 01:42:06;;;;;;;29.33;20.45;;;154.40;2252.80;;;;;;4987860;28;20052;-59
2021/12/17 01:44:35;;;;;;;28.00;20.23;;;154.40;2252.80;;;;;;5010052;28;20022;-59
2021/12/17 01:47:03;;;;;;;41.60;20.77;;;154.40;2252.80;;;;;;5010124;28;20548;-59
2021/12/17 02:00:15;;;;;;;28.10;18.45;;;154.50;2252.80;;;;;;5010023;28;20046;-59
2021/12/17 02:02:47;;;;;;;30.80;18.95;;;154.50;2252.80;;;;;;5009835;28;20042;-58
2021/12/17 02:05:14;;;;;;;26.67;17.65;;;154.50;2252.80;;;;;;5010199;28;20030;-58
2021/12/17 02:07:41;;;;;;;33.50;21.33;;;154.40;2252.80;;;;;;5009771;28;20476;-59
2021/12/17 02:10:41;;;;;;;30.77;19.88;;;154.40;2252.80;;;;;;5010150;28;20049;-57
2021/12/17 02:19:28;;;;;;;30.85;19.52;;;154.30;2252.80;;;;;;5010052;28;20034;-58
2021/12/17 02:32:28;;;;;;;28.45;19.25;;;154.40;2252.80;;;;;;5010164;28;20092;-58
2021/12/17 02:35:13;;;;;;;30.70;21.08;;;154.50;2252.80;;;;;;4971200;28;20457;-59
2021/12/17 02:37:42;;;;;;;32.85;18.92;;;154.50;2252.80;;;;;;4970813;28;20074;-59
2021/12/17 02:42:20;;;;;;;30.83;20.63;;;154.40;2252.80;;;;;;4970820;28;20809;-59
2021/12/17 02:45:33;;;;;;;28.83;19.45;;;154.30;2252.80;;;;;;4974255;28;20038;-59
2021/12/17 02:48:14;;;;;;;52.22;42.75;;;154.50;2252.80;;;;;;4974227;28;20023;-59
2021/12/17 02:50:50;;;;;;;33.28;22.83;;;154.30;2252.80;;;;;;4974138;28;20514;-59
2021/12/17 02:53:18;;;;;;;38.22;24.08;;;154.20;2252.80;;;;;;4974543;28;20031;-59
2021/12/17 02:55:51;;;;;;;30.33;20.63;;;154.20;2252.80;;;;;;4974198;28;20033;-59
2021/12/17 02:58:20;;;;;;;31.25;20.60;;;154.30;2252.80;;;;;;4974080;28;20528;-59
2021/12/17 03:00:46;;;;;;;33.67;21.65;;;154.40;2252.80;;;;;;4973961;28;20133;-58
2021/12/17 03:03:13;;;;;;;32.38;22.55;;;154.40;2252.80;;;;;;4973621;28;20117;-60
2021/12/17 03:05:41;;;;;;;29.63;20.17;;;154.30;2252.80;;;;;;4973740;28;20049;-59
2021/12/17 03:08:11;;;;;;;30.48;20.70;;;154.30;2252.80;;;;;;4974194;28;20025;-59
2021/12/17 03:10:37;;;;;;;30.63;20.30;;;154.30;2252.80;;;;;;4973917;28;20029;-59
2021/12/17 03:13:04;;;;;;;25.48;18.20;;;154.30;2252.80;;;;;;4973968;28;20031;-59
2021/12/17 03:26:04;;;;;;;24.50;17.17;;;154.20;2252.80;;;;;;4973819;28;20453;-59
2021/12/17 03:28:31;;;;;;;24.85;17.38;;;154.20;2252.80;;;;;;4973390;28;20074;-59
2021/12/17 03:30:58;;;;;;;26.55;17.50;;;154.20;2252.80;;;;;;4973534;28;20038;-59
2021/12/17 03:33:25;;;;;;;24.52;16.65;;;154.20;2252.80;;;;;;4989007;28;20061;-59
2021/12/17 03:35:51;;;;;;;27.02;17.15;;;154.30;2252.80;;;;;;5012359;28;20052;-58
2021/12/17 03:38:18;;;;;;;43.70;32.15;;;154.30;2252.80;;;;;;5012321;28;20033;-58
2021/12/17 03:40:45;;;;;;;24.48;16.77;;;154.30;2252.80;;;;;;5012257;28;20045;-59
2021/12/17 03:43:21;;;;;;;25.23;19.75;;;154.30;2252.80;;;;;;5012095;28;20026;-59
2021/12/17 03:45:47;;;;;;;25.63;16.88;;;154.30;2252.80;;;;;;5012190;28;20030;-59
2021/12/17 03:48:13;;;;;;;24.27;15.82;;;154.40;2252.80;;;;;;5012262;28;20048;-58
2021/12/17 03:50:38;;;;;;;24.08;17.88;;;179.20;2252.80;;;;;;5012059;28;20475;-59
2021/12/17 03:53:06;;;;;;;28.15;16.83;;;154.50;2252.80;;;;;;5012214;28;20022;-58
2021/12/17 03:55:32;;;;;;;26.42;20.15;;;154.50;2252.80;;;;;;5010913;28;20026;-58
2021/12/17 03:57:59;;;;;;;28.70;18.27;;;154.40;2252.80;;;;;;5011958;28;20026;-59
2021/12/17 04:00:25;;;;;;;26.02;18.38;;;154.30;2252.80;;;;;;5012030;28;20026;-59
2021/12/17 04:02:51;;;;;;;32.95;19.48;;;154.40;2252.80;;;;;;5011701;28;20034;-58
2021/12/17 04:05:17;;;;;;;31.38;21.27;;;154.40;2252.80;;;;;;5011868;28;20033;-58
2021/12/17 04:07:42;;;;;;;29.73;21.13;;;154.50;2252.80;;;;;;5011777;28;20022;-59
2021/12/17 04:10:09;;;;;;;28.25;20.42;;;154.40;2252.80;;;;;;5011623;28;20112;-59
2021/12/17 04:12:48;;;;;;;29.05;19.77;;;154.40;2252.80;;;;;;5011859;28;20030;-58
2021/12/17 04:15:15;;;;;;;31.42;23.60;;;154.30;2252.80;;;;;;5011892;28;20376;-58
2021/12/17 04:17:45;;;;;;;27.00;19.30;;;154.50;2252.80;;;;;;5011643;28;20034;-59
2021/12/17 04:20:11;;;;;;;31.83;19.08;;;154.40;2252.80;;;;;;5011382;28;20038;-59
2021/12/17 04:22:37;;;;;;;28.98;22.88;;;179.20;2252.80;;;;;;5010006;28;20125;-58
2021/12/17 04:25:03;;;;;;;29.88;18.13;;;154.40;2252.80;;;;;;5011249;28;20109;-58
2021/12/17 04:27:29;;;;;;;25.48;17.65;;;154.50;2252.80;;;;;;5011355;28;20077;-59
2021/12/17 04:29:57;;;;;;;25.13;18.38;;;154.50;2252.80;;;;;;5011632;28;20049;-59
2021/12/17 04:32:23;;;;;;;30.17;22.58;;;154.50;2252.80;;;;;;5011235;28;20113;-58
2021/12/17 04:34:49;;;;;;;29.90;22.02;;;154.40;2252.80;;;;;;5010939;28;20057;-59
2021/12/17 04:37:14;;;;;;;23.38;18.20;;;154.40;2252.80;;;;;;5011332;28;20026;-59
2021/12/17 04:39:40;;;;;;;24.80;18.80;;;154.40;2252.80;;;;;;5010978;28;20048;-59
2021/12/17 04:45:05;;;;;;;26.00;16.27;;;154.50;2252.80;;;;;;4978007;28;20077;-58
2021/12/17 04:58:28;;;;;;;16.17;11.27;;;179.20;2252.80;;;;;;5011340;28;20025;-59
2021/12/17 05:00:55;;;;;;;18.45;12.88;;;154.50;2252.80;;;;;;5010841;28;20499;-58
2021/12/17 05:03:21;;;;;;;19.95;17.88;;;154.40;2252.80;;;;;;5010524;28;20555;-59
2021/12/17 05:05:47;;;;;;;14.63;11.05;;;154.50;2252.80;;;;;;5010808;28;20113;-59
2021/12/17 05:08:16;;;;;;;13.75;11.45;;;154.50;2252.80;;;;;;5010395;28;20076;-59
2021/12/17 05:19:19;;;;;;;13.10;10.07;;;154.50;2252.80;;;;;;4949861;29;20054;-59
2021/12/17 05:21:45;;;;;;;13.85;9.57;;;179.20;2252.80;;;;;;4950358;29;20047;-58
2021/12/17 05:24:11;;;;;;;13.18;9.35;;;179.20;2252.80;;;;;;4949870;29;20040;-58
2021/12/17 05:26:37;;;;;;;12.23;8.80;;;179.30;2252.80;;;;;;4950289;29;20038;-59
2021/12/17 05:29:03;;;;;;;12.55;8.60;;;179.40;2252.80;;;;;;4949775;28;20027;-59
2021/12/17 05:31:29;;;;;;;13.05;8.85;;;179.30;2252.80;;;;;;4949905;29;20394;-59
2021/12/17 05:33:56;;;;;;;12.65;8.23;;;179.20;2252.80;;;;;;4950045;29;20055;-59
2021/12/17 05:36:22;;;;;;;12.30;11.10;;;179.30;2252.80;;;;;;4949953;28;20039;-58
2021/12/17 05:38:48;;;;;;;14.45;10.35;;;179.30;2252.80;;;;;;4949941;29;20031;-58
2021/12/17 05:41:14;;;;;;;15.52;11.73;;;179.30;2252.80;;;;;;4950069;29;20035;-58
2021/12/17 05:43:40;;;;;;;15.48;9.95;;;179.20;2252.80;;;;;;4949416;29;20039;-59
2021/12/17 05:48:33;;;;;;;14.25;9.57;;;179.20;2252.80;;;;;;4949677;29;20515;-58
2021/12/17 05:51:02;;;;;;;15.63;8.95;;;179.20;2252.80;;;;;;4949812;29;20027;-59
2021/12/17 05:53:28;;;;;;;31.23;25.65;;;179.20;2252.80;;;;;;4949844;28;20035;-59
2021/12/17 05:55:55;;;;;;;14.25;10.73;;;179.30;2252.80;;;;;;4978730;28;20038;-58
2021/12/17 05:58:21;;;;;;;10.88;7.82;;;179.30;2252.80;;;;;;5010245;28;20025;-58
2021/12/17 06:00:47;;;;;;;13.55;8.88;;;179.20;2252.80;;;;;;4992381;28;20034;-59
2021/12/17 06:03:14;;;;;;;16.17;9.95;;;179.20;2252.80;;;;;;5009990;28;20362;-58
2021/12/17 06:05:40;;;;;;;14.88;10.52;;;179.30;2252.80;;;;;;5009871;28;20468;-59
2021/12/17 06:08:06;;;;;;;10.68;7.88;;;179.20;2252.80;;;;;;5010326;28;20079;-58
2021/12/17 06:10:32;;;;;;;13.73;9.80;;;179.20;2252.80;;;;;;5014041;28;20113;-58
2021/12/17 06:12:58;;;;;;;13.20;9.40;;;179.30;2252.80;;;;;;5010062;28;20468;-58
2021/12/17 06:15:25;;;;;;;14.70;10.07;;;179.30;2252.80;;;;;;5010051;28;20483;-58
2021/12/17 06:17:52;;;;;;;14.48;10.27;;;179.20;2252.80;;;;;;5009741;28;20033;-59
2021/12/17 06:20:20;;;;;;;13.23;9.93;;;179.20;1868.80;;;;;;5013351;28;20037;-59
2021/12/17 06:22:46;;;;;;;14.45;10.60;;;179.20;2252.80;;;;;;5013843;28;20018;-59
2021/12/17 06:25:13;;;;;;;16.52;11.50;;;179.30;2252.80;;;;;;5013497;28;20480;-57
2021/12/17 06:27:39;;;;;;;13.52;9.65;;;179.30;2252.80;;;;;;5013647;28;20104;-58
2021/12/17 06:30:07;;;;;;;13.98;10.77;;;179.20;2252.80;;;;;;5013535;28;20033;-58
2021/12/17 06:32:33;;;;;;;14.15;10.55;;;179.40;2252.80;;;;;;5013356;28;20033;-58
2021/12/17 06:34:59;;;;;;;16.25;12.15;;;179.40;2252.80;;;;;;5013493;28;20030;-58
2021/12/17 06:37:25;;;;;;;11.02;8.77;;;179.40;2252.80;;;;;;5015836;28;20088;-59
2021/12/17 06:39:51;;;;;;;17.58;12.38;;;179.40;2252.80;;;;;;5022713;28;20391;-59
2021/12/17 06:42:18;;;;;;;49.97;37.97;;;179.20;2252.80;;;;;;5021954;28;20089;-58
2021/12/17 06:44:46;;;;;;;53.55;29.10;;;179.20;2252.80;;;;;;5019204;28;20030;-58
2021/12/17 06:47:30;;;;;;;57.22;27.80;;;179.20;2252.80;;;;;;5013680;28;20030;-67
2021/12/17 07:35:46;;;;;;;30.50;22.48;;;179.40;2252.80;;;;;;4942411;29;20124;-65
2021/12/17 07:40:57;;;;;;;19.23;13.07;;;179.30;2252.80;;;;;;4933096;29;20062;-66
2021/12/17 07:43:27;;;;;;;22.58;16.23;;;179.40;2252.80;;;;;;4932872;29;20056;-65
2021/12/17 07:45:55;;;;;;;32.85;24.60;;;179.50;2252.80;;;;;;4935026;29;20035;-66
2021/12/17 07:48:21;;;;;;;26.20;20.10;;;179.50;2252.80;;;;;;4939950;29;20066;-65
2021/12/17 07:50:47;;;;;;;23.05;17.83;;;179.50;2252.80;;;;;;4940986;29;20086;-65
2021/12/17 07:53:14;;;;;;;25.33;19.15;;;179.60;2252.80;;;;;;4941480;29;20028;-66
2021/12/17 07:55:39;;;;;;;34.85;23.88;;;179.70;2252.80;;;;;;4941729;29;20024;-65
2021/12/17 07:58:05;;;;;;;25.30;17.70;;;179.70;2252.80;;;;;;4940458;29;20135;-66
2021/12/17 08:00:31;;;;;;;25.50;17.75;;;179.60;2252.80;;;;;;4968127;28;20085;-65
2021/12/17 08:02:57;;;;;;;43.70;38.95;;;179.60;2252.80;;;;;;5014318;28;20033;-66
2021/12/17 08:05:22;;;;;;;18.27;14.88;;;179.70;2252.80;;;;;;5011801;28;20077;-65
2021/12/17 08:07:48;;;;;;;21.42;15.52;;;179.70;2252.80;;;;;;5011614;28;20030;-67
2021/12/17 08:10:14;;;;;;;55.30;37.45;;;179.70;2252.80;;;;;;5010159;28;20038;-66
2021/12/17 08:12:40;;;;;;;76.05;51.83;;;179.80;2252.80;;;;;;5011502;28;20096;-66
2021/12/17 08:15:09;;;;;;;54.83;44.15;;;179.90;2252.80;;;;;;5011819;28;20034;-66
2021/12/17 08:18:52;;;;;;;22.58;18.15;;;179.90;2252.80;;;;;;5011937;28;20034;-65
2021/12/17 08:28:28;;;;;;;21.25;16.83;;;179.70;2252.80;;;;;;5011828;28;20029;-67
2021/12/17 08:30:54;;;;;;;33.00;29.35;;;179.70;2252.80;;;;;;5011477;28;20058;-65
2021/12/17 08:33:21;;;;;;;17.58;14.60;;;179.70;2252.80;;;;;;5010852;28;20069;-65
2021/12/17 08:35:47;;;;;;;18.40;14.70;;;179.70;2252.80;;;;;;5011485;28;20041;-66
2021/12/17 08:38:13;;;;;;;34.03;26.08;;;179.70;2252.80;;;;;;5011504;28;20029;-66
2021/12/17 08:40:39;;;;;;;17.90;13.50;;;179.80;2252.80;;;;;;5011198;28;20483;-66
2021/12/17 08:43:05;;;;;;;28.25;20.35;;;179.80;2252.80;;;;;;5010903;28;20033;-68
2021/12/17 08:45:31;;;;;;;38.65;27.05;;;179.80;2252.80;;;;;;4992868;28;20040;-66
2021/12/17 08:47:57;;;;;;;46.58;36.72;;;179.90;2252.80;;;;;;5011129;28;20025;-66
2021/12/17 08:50:23;;;;;;;20.48;16.38;;;180.00;2252.80;;;;;;5011186;28;20160;-67
2021/12/17 08:52:49;;;;;;;26.02;20.55;;;180.00;2252.80;;;;;;5010995;28;20038;-66
2021/12/17 08:55:15;;;;;;;17.77;13.77;;;180.00;2252.80;;;;;;5011141;28;20026;-66
2021/12/17 08:57:41;;;;;;;31.92;24.42;;;180.00;2252.80;;;;;;5010818;28;20030;-66
2021/12/17 09:00:09;;;;;;;47.40;34.45;;;180.00;2252.80;;;;;;5010931;28;20125;-66
2021/12/17 09:02:37;;;;;;;20.05;13.20;;;180.00;2252.80;;;;;;5010587;28;20034;-67
2021/12/17 09:05:06;;;;;;;16.55;12.10;;;180.00;2252.80;;;;;;5010696;28;20116;-67
2021/12/17 09:07:33;;;;;;;22.45;15.85;;;180.10;2252.80;;;;;;5010836;28;20101;-67
2021/12/17 09:09:59;;;;;;;34.47;24.38;;;180.10;2252.80;;;;;;5010609;28;20535;-67
2021/12/17 09:12:25;;;;;;;22.10;14.85;;;180.10;2252.80;;;;;;5010903;28;20487;-67
2021/12/17 09:14:50;;;;;;;44.08;29.65;;;204.80;2252.80;;;;;;5010433;28;20100;-67
2021/12/17 09:17:16;;;;;;;45.78;26.95;;;204.80;2252.80;;;;;;5010783;28;20029;-67
2021/12/17 09:19:42;;;;;;;18.88;13.15;;;205.00;2252.80;;;;;;5010603;28;20115;-67
2021/12/17 09:22:08;;;;;;;24.63;19.98;;;205.00;2252.80;;;;;;5010683;28;20025;-66
2021/12/17 09:24:34;;;;;;;19.23;14.50;;;205.00;2252.80;;;;;;5010608;28;20030;-66
2021/12/17 09:26:59;;;;;;;18.27;14.38;;;205.30;2252.80;;;;;;5010308;28;20026;-66
2021/12/17 09:29:27;;;;;;;18.30;14.27;;;205.20;2252.80;;;;;;5010819;28;20061;-66
2021/12/17 09:31:52;;;;;;;14.80;11.00;;;205.20;2252.80;;;;;;5010390;28;20434;-68
2021/12/17 09:34:18;;;;;;;17.50;12.07;;;205.10;2252.80;;;;;;5009811;28;20064;-68
2021/12/17 09:36:44;;;;;;;16.05;10.95;;;204.90;2252.80;;;;;;5010453;28;20029;-64
2021/12/17 09:39:10;;;;;;;15.98;12.05;;;204.80;2252.80;;;;;;4992411;28;20053;-67
2021/12/17 09:41:36;;;;;;;15.27;9.88;;;180.00;2252.80;;;;;;5010460;28;20053;-67
2021/12/17 09:44:03;;;;;;;21.13;15.63;;;179.80;2252.80;;;;;;5010153;28;20064;-66
2021/12/17 09:46:28;;;;;;;17.73;12.45;;;179.90;2252.80;;;;;;5010094;28;20060;-66
2021/12/17 09:48:54;;;;;;;16.35;11.25;;;179.90;2252.80;;;;;;5010427;28;20057;-66
2021/12/17 09:51:21;;;;;;;19.65;12.15;;;179.80;2252.80;;;;;;5010132;28;20030;-66
2021/12/17 09:53:47;;;;;;;19.25;13.68;;;180.00;2252.80;;;;;;5011610;28;20384;-68
2021/12/17 09:56:13;;;;;;;18.67;12.82;;;179.90;2252.80;;;;;;5014484;28;20029;-67
2021/12/17 09:58:39;;;;;;;33.63;23.08;;;179.90;2252.80;;;;;;5013974;28;20080;-67
2021/12/17 10:01:05;;;;;;;22.20;15.98;;;179.90;2252.80;;;;;;5014190;28;20034;-67
2021/12/17 10:03:31;;;;;;;23.80;17.75;;;180.00;2252.80;;;;;;5013889;28;20037;-67
2021/12/17 10:05:57;;;;;;;20.75;15.32;;;179.90;2252.80;;;;;;5014300;28;20061;-67
2021/12/17 10:08:24;;;;;;;17.77;12.55;;;180.00;2252.80;;;;;;5013982;28;20372;-67
2021/12/17 10:10:53;;;;;;;15.93;11.85;;;179.90;2252.80;;;;;;5013894;28;20105;-67
2021/12/17 10:13:21;;;;;;;18.65;11.18;;;179.90;2252.80;;;;;;5013971;28;20105;-67
2021/12/17 10:15:50;;;;;;;17.50;13.45;;;179.90;2252.80;;;;;;5013845;28;20036;-68
2021/12/17 10:18:17;;;;;;;17.50;12.13;;;179.70;2252.80;;;;;;5013909;28;20053;-67
2021/12/17 10:21:07;;;;;;;30.77;21.67;;;179.80;2252.80;;;;;;5013697;28;20148;-67
2021/12/17 10:23:34;;;;;;;24.75;15.70;;;179.80;2252.80;;;;;;5013882;28;20160;-67
2021/12/17 10:26:00;;;;;;;23.70;15.13;;;179.90;2252.80;;;;;;5013581;28;20491;-67
2021/12/17 10:28:27;;;;;;;24.90;16.33;;;179.80;2252.80;;;;;;5013912;28;20473;-67
2021/12/17 10:30:55;;;;;;;21.70;14.40;;;179.80;2252.80;;;;;;5013618;28;20096;-67
2021/12/17 10:33:24;;;;;;;26.65;19.42;;;179.70;2252.80;;;;;;5013189;28;20048;-67
2021/12/17 10:35:52;;;;;;;17.98;12.63;;;179.70;2252.80;;;;;;5013489;28;20025;-67
2021/12/17 10:38:23;;;;;;;18.45;13.10;;;179.70;2252.80;;;;;;5013647;28;20038;-68
2021/12/17 10:41:07;;;;;;;21.98;14.82;;;179.70;2252.80;;;;;;5013154;28;20057;-68
2021/12/17 10:43:37;;;;;;;18.15;12.98;;;179.70;2252.80;;;;;;5012522;28;20546;-67
2021/12/17 10:46:20;;;;;;;23.33;16.13;;;179.70;2252.80;;;;;;5013582;28;20036;-67
2021/12/17 10:53:58;;;;;;;26.13;18.30;;;179.60;2252.80;;;;;;5013348;28;20153;-66
2021/12/17 10:56:30;;;;;;;29.58;18.33;;;179.70;2252.80;;;;;;5013389;28;20026;-67
2021/12/17 10:59:02;;;;;;;27.30;14.77;;;179.60;2252.80;;;;;;5013195;28;20026;-67
2021/12/17 11:01:35;;;;;;;20.20;12.60;;;179.60;2252.80;;;;;;5013208;28;20030;-67
2021/12/17 11:04:16;;;;;;;22.45;15.70;;;179.50;2252.80;;;;;;5012597;28;20128;-68
2021/12/17 11:06:49;;;;;;;19.70;13.98;;;179.50;2252.80;;;;;;4994710;28;20096;-67
2021/12/17 11:09:49;;;;;;;20.40;15.13;;;179.50;2252.80;;;;;;5012972;28;20026;-67
2021/12/17 11:12:17;;;;;;;14.90;9.95;;;179.50;2252.80;;;;;;4995307;28;20061;-67
2021/12/17 11:14:45;;;;;;;23.83;16.17;;;179.40;2252.80;;;;;;5012633;28;20036;-68
2021/12/17 11:17:12;;;;;;;27.77;17.48;;;179.50;2252.80;;;;;;5012606;28;20014;-68
2021/12/17 11:19:39;;;;;;;16.98;12.27;;;179.50;2252.80;;;;;;5012756;28;20134;-67
2021/12/17 11:22:05;;;;;;;16.90;13.70;;;179.50;2252.80;;;;;;4995240;28;20037;-67
2021/12/17 11:24:34;;;;;;;16.02;12.48;;;179.50;2252.80;;;;;;5012677;28;20022;-68
2021/12/17 11:27:01;;;;;;;23.92;15.27;;;179.50;2252.80;;;;;;5012498;28;20088;-68
2021/12/17 11:29:29;;;;;;;19.23;14.18;;;179.40;2252.80;;;;;;5012685;28;20033;-67
2021/12/17 11:31:55;;;;;;;21.88;12.18;;;179.50;2252.80;;;;;;5012792;28;20376;-67
2021/12/17 11:34:21;;;;;;;39.03;23.13;;;179.60;2252.80;;;;;;5012183;28;20046;-67
2021/12/17 11:36:47;;;;;;;22.17;14.95;;;179.50;2252.80;;;;;;5012620;28;20041;-66
2021/12/17 11:39:23;;;;;;;15.63;10.73;;;179.50;2252.80;;;;;;5012343;28;20040;-68
2021/12/17 11:42:04;;;;;;;24.42;15.15;;;179.60;2252.80;;;;;;5012369;28;20030;-67
2021/12/17 11:44:40;;;;;;;24.17;15.02;;;179.60;2252.80;;;;;;5012094;28;20037;-67
2021/12/17 11:47:10;;;;;;;54.33;31.98;;;179.60;2252.80;;;;;;5012221;28;20535;-67
2021/12/17 11:49:38;;;;;;;24.17;12.05;;;179.50;2252.80;;;;;;5012287;28;20036;-67
2021/12/17 11:52:05;;;;;;;17.80;11.80;;;179.40;2252.80;;;;;;5012331;28;20028;-67
2021/12/17 11:54:33;;;;;;;19.73;12.32;;;179.40;2252.80;;;;;;5011907;28;20034;-68
2021/12/17 11:57:11;;;;;;;22.23;14.60;;;179.50;2252.80;;;;;;5011904;28;20069;-68
2021/12/17 11:59:39;;;;;;;18.73;13.18;;;179.40;2252.80;;;;;;5012051;28;20026;-67
2021/12/17 12:02:23;;;;;;;15.30;11.52;;;179.40;2252.80;;;;;;5011862;28;20029;-67
2021/12/17 12:04:59;;;;;;;26.52;17.13;;;179.40;2252.80;;;;;;5011676;28;20519;-68
2021/12/17 12:07:24;;;;;;;16.13;11.30;;;179.40;2252.80;;;;;;5012042;28;20383;-68
2021/12/17 12:10:05;;;;;;;15.27;10.32;;;179.40;2252.80;;;;;;5011680;28;20030;-67
2021/12/17 12:12:34;;;;;;;19.65;14.25;;;179.40;2252.80;;;;;;5011858;28;20044;-67
2021/12/17 12:15:27;;;;;;;18.35;11.88;;;179.40;2252.80;;;;;;5011657;28;20030;-68
2021/12/17 12:18:03;;;;;;;18.95;13.05;;;179.40;2252.80;;;;;;5010965;28;20029;-69
2021/12/17 12:20:47;;;;;;;18.42;12.07;;;179.40;2252.80;;;;;;4993890;28;20038;-68
2021/12/17 12:23:19;;;;;;;21.77;16.27;;;179.40;2252.80;;;;;;5012559;28;20481;-68
2021/12/17 12:25:47;;;;;;;44.45;32.47;;;179.40;2252.80;;;;;;5012629;28;20044;-69
2021/12/17 12:28:15;;;;;;;17.95;11.88;;;179.40;2252.80;;;;;;5012881;28;20428;-68
2021/12/17 12:30:44;;;;;;;16.70;12.02;;;179.40;2252.80;;;;;;5011599;28;20080;-66
2021/12/17 12:33:12;;;;;;;34.35;24.38;;;179.30;2252.80;;;;;;5010969;28;20511;-66
2021/12/17 12:35:38;;;;;;;19.50;12.93;;;179.30;2252.80;;;;;;5011661;28;20529;-66
2021/12/17 12:38:13;;;;;;;18.40;13.93;;;179.30;2252.80;;;;;;5011076;28;20506;-65
2021/12/17 12:40:44;;;;;;;26.52;15.90;;;179.40;2252.80;;;;;;5011069;28;20095;-65
2021/12/17 12:43:31;;;;;;;22.70;14.32;;;179.50;2252.80;;;;;;5011016;28;20028;-67
2021/12/17 12:45:58;;;;;;;16.15;11.95;;;179.40;2252.80;;;;;;5011309;28;20477;-68
2021/12/17 12:48:39;;;;;;;17.27;11.88;;;179.40;2252.80;;;;;;5011300;28;20033;-66
2021/12/17 12:51:22;;;;;;;19.83;12.77;;;179.40;2252.80;;;;;;5011302;28;20022;-65
2021/12/17 12:54:06;;;;;;;18.13;10.82;;;179.50;2252.80;;;;;;5011279;28;20033;-67
2021/12/17 12:56:32;;;;;;;23.13;14.88;;;179.30;2252.80;;;;;;5010869;28;20113;-66
2021/12/17 12:58:58;;;;;;;16.30;11.60;;;179.40;2252.80;;;;;;5008963;28;20096;-67
2021/12/17 13:01:24;;;;;;;37.55;23.48;;;179.40;2252.80;;;;;;5009664;28;20038;-67
2021/12/17 13:03:50;;;;;;;21.05;14.07;;;179.30;2252.80;;;;;;5009213;28;20563;-66
2021/12/17 13:06:18;;;;;;;18.70;11.32;;;179.30;2252.80;;;;;;5009438;28;20357;-65
2021/12/17 13:08:55;;;;;;;17.88;11.82;;;179.30;2252.80;;;;;;5009707;28;20094;-66
2021/12/17 13:11:22;;;;;;;19.33;13.43;;;179.30;2252.80;;;;;;5008857;28;20125;-67
2021/12/17 13:21:42;;;;;;;19.77;13.35;;;179.20;2252.80;;;;;;5009496;28;20052;-68
2021/12/17 13:24:15;;;;;;;27.00;19.98;;;154.50;2252.80;;;;;;5008809;28;20575;-68
2021/12/17 13:26:45;;;;;;;;;;;179.20;2252.80;;;;;;5009385;28;20026;-68
2021/12/17 13:29:25;;;;;;;17.00;11.23;;;179.20;2252.80;;;;;;5008696;28;19909;-68
2021/12/17 13:32:05;;;;;;;36.35;20.70;;;154.50;2252.80;;;;;;5008745;28;20164;-69
2021/12/17 13:34:38;;;;;;;23.60;15.10;;;154.40;2252.80;;;;;;5008098;28;20504;-69
2021/12/17 13:37:13;;;;;;;19.35;12.57;;;154.40;2252.80;;;;;;5007755;28;20431;-68
2021/12/17 13:40:07;;;;;;;16.35;9.38;;;154.40;2252.80;;;;;;5007842;28;20037;-67
2021/12/17 13:42:47;;;;;;;27.30;18.33;;;154.50;2252.80;;;;;;5009828;28;20488;-66
2021/12/17 13:45:15;;;;;;;21.83;14.30;;;154.50;2252.80;;;;;;5007704;28;20049;-68
2021/12/17 13:47:54;;;;;;;18.83;11.88;;;154.50;2252.80;;;;;;5009258;28;20029;-67
2021/12/17 13:50:44;;;;;;;20.40;12.90;;;154.50;2252.80;;;;;;5009304;28;20088;-67
2021/12/17 13:53:15;;;;;;;19.58;13.48;;;179.20;2252.80;;;;;;5009236;28;20472;-67
2021/12/17 13:55:47;;;;;;;24.15;12.60;;;154.50;2252.80;;;;;;5009206;28;20022;-67
2021/12/17 13:58:15;;;;;;;19.10;13.57;;;154.50;2252.80;;;;;;5009377;28;20037;-67
2021/12/17 14:00:44;;;;;;;18.10;11.73;;;154.50;2252.80;;;;;;5009151;28;20388;-67
2021/12/17 14:03:13;;;;;;;16.33;11.60;;;154.40;2252.80;;;;;;5009094;28;20026;-67
2021/12/17 14:05:49;;;;;;;14.77;11.70;;;154.40;2252.80;;;;;;5009375;28;20053;-68
2021/12/17 14:08:18;;;;;;;21.05;12.05;;;154.40;2252.80;;;;;;5009355;28;20072;-68
2021/12/17 14:10:44;;;;;;;26.70;17.83;;;154.40;2252.80;;;;;;5009470;28;20033;-68
2021/12/17 14:13:24;;;;;;;15.02;10.45;;;154.30;2252.80;;;;;;5009047;28;20029;-67
2021/12/17 14:15:52;;;;;;;39.13;23.70;;;154.40;2252.80;;;;;;5009116;28;20447;-67
2021/12/17 14:18:20;;;;;;;22.08;13.23;;;154.30;2252.80;;;;;;5009624;28;20373;-66
2021/12/17 14:20:51;;;;;;;69.45;42.22;;;154.20;2252.80;;;;;;5007824;28;20034;-69
2021/12/17 14:23:23;;;;;;;229.75;132.55;;;154.30;2252.80;;;;;;5007665;28;20030;-67
2021/12/17 14:25:51;;;;;;;45.33;29.27;;;154.30;2252.80;;;;;;5007454;28;20030;-67
2021/12/17 14:28:17;;;;;;;220.55;127.72;;;154.30;2252.80;;;;;;5007647;28;20031;-67
2021/12/17 14:30:55;;;;;;;29.20;14.75;;;154.20;2252.80;;;;;;5007304;28;20034;-68
2021/12/17 14:33:23;;;;;;;30.15;17.75;;;154.20;2252.80;;;;;;4965096;28;1220745;-68
2021/12/17 14:36:04;;;;;;;50.38;30.40;;;154.10;2252.80;;;;;;5007822;28;20038;-67
2021/12/17 14:38:53;;;;;;;82.57;53.53;;;154.10;2252.80;;;;;;5008265;28;20069;-68
2021/12/17 14:41:35;;;;;;;52.22;35.33;;;154.10;2252.80;;;;;;5011749;28;20037;-68
2021/12/17 14:47:30;;;;;;;30.05;17.75;;;154.00;2252.80;;;;;;4950495;29;20102;-67
2021/12/17 15:03:43;;;;;;;22.48;14.55;;;154.00;2252.80;;;;;;4912785;29;20068;-68
2021/12/17 15:06:15;;;;;;;26.83;15.40;;;153.90;2252.80;;;;;;4912409;29;20063;-68
2021/12/17 15:08:41;;;;;;;27.05;19.63;;;153.90;2252.80;;;;;;4912380;29;20415;-67
2021/12/17 15:11:23;;;;;;;21.98;12.90;;;154.00;2252.80;;;;;;4912699;29;20064;-68
2021/12/17 15:13:49;;;;;;;22.38;12.57;;;154.00;2252.80;;;;;;4912071;29;20039;-69
2021/12/17 15:16:15;;;;;;;23.90;17.67;;;154.10;2252.80;;;;;;4912618;29;20047;-69
2021/12/17 15:18:42;;;;;;;23.63;16.20;;;154.00;2252.80;;;;;;4912300;29;20106;-67
2021/12/17 15:21:08;;;;;;;20.90;12.75;;;154.00;2252.80;;;;;;4912471;29;20032;-66
2021/12/17 15:23:35;;;;;;;27.98;17.10;;;154.00;2252.80;;;;;;4928273;29;20035;-68
2021/12/17 15:26:02;;;;;;;18.60;13.32;;;154.10;2252.80;;;;;;4930892;29;20035;-69
2021/12/17 15:28:28;;;;;;;21.83;13.77;;;154.10;2252.80;;;;;;4915455;29;20043;-66
2021/12/17 15:30:57;;;;;;;25.27;14.45;;;154.10;2252.80;;;;;;4931397;29;20050;-67
2021/12/17 15:33:23;;;;;;;25.63;15.55;;;154.00;2252.80;;;;;;4930858;29;20054;-67
2021/12/17 15:35:52;;;;;;;19.48;10.90;;;154.10;2252.80;;;;;;4931117;29;20036;-67